This is the latest recevied weather packets stored in our database for station/object DB0MOD. If no packets are shown the sender has not sent any weather packets the latest 10 day(s).
| Time | Temp. | Humidity | Pressure | Rain* | Wind** | Luminosity | Snow |
|---|---|---|---|---|---|---|---|
| 1777713254 | 23.89° C | 36% | 1022.9 hPa | 0 mm | - | - | - |
| 1777712954 | 23.33° C | 36% | 1022.8 hPa | 0 mm | - | - | - |
| 1777712654 | 23.89° C | 36% | 1022.9 hPa | 0 mm | - | - | - |
| 1777712354 | 23.89° C | 37% | 1022.8 hPa | 0 mm | - | - | - |
| 1777711154 | 22.78° C | 39% | 1022.5 hPa | 0 mm | - | - | - |
| 1777710554 | 22.78° C | 40% | 1022.4 hPa | 0 mm | - | - | - |
| 1777709354 | 20.56° C | 42% | 1021.8 hPa | 0 mm | - | - | - |
| 1777708757 | 19.44° C | 44% | 1021.8 hPa | 0 mm | - | - | - |
| 1777708754 | 19.44° C | 44% | 1021.8 hPa | 0 mm | - | - | - |
| 1777708454 | 19.44° C | 44% | 1021.9 hPa | 0 mm | - | - | - |
| 1777708154 | 18.89° C | 44% | 1021.9 hPa | 0 mm | - | - | - |
| 1777707554 | 18.33° C | 45% | 1021.9 hPa | 0 mm | - | - | - |
| 1777707254 | 17.78° C | 45% | 1022 hPa | 0 mm | - | - | - |
| 1777706954 | 17.22° C | 46% | 1022 hPa | 0 mm | - | - | - |
| 1777706654 | 16.67° C | 45% | 1022 hPa | 0 mm | - | - | - |
| 1777706357 | 16.11° C | 45% | 1021.9 hPa | 0 mm | - | - | - |
| 1777706354 | 16.11° C | 45% | 1021.9 hPa | 0 mm | - | - | - |
| 1777706054 | 15.56° C | 46% | 1021.9 hPa | 0 mm | - | - | - |
| 1777705754 | 15° C | 46% | 1021.8 hPa | 0 mm | - | - | - |
| 1777705454 | 14.44° C | 45% | 1021.9 hPa | 0 mm | - | - | - |
| 1777705154 | 13.89° C | 45% | 1021.9 hPa | 0 mm | - | - | - |
| 1777704854 | 12.78° C | 45% | 1021.7 hPa | 0 mm | - | - | - |
| 1777704554 | 12.22° C | 46% | 1021.8 hPa | 0 mm | - | - | - |
| 1777704254 | 11.67° C | 45% | 1021.9 hPa | 0 mm | - | - | - |
| 1777703954 | 11.67° C | 44% | 1021.9 hPa | 0 mm | - | - | - |
* Rain latest hour (hover to see other rain measurements)
** Current wind speed in m/s (hover to see current wind gust speed)